Time;durP1;ratioP1;P1;durP2;ratioP2;P2;SDS_P1;SDS_P2;PMS_P1;PMS_P2;Temp;Humidity;BMP_temperature;BMP_pressure;BME280_temperature;BME280_humidity;BME280_pressure;Samples;Min_cycle;Max_cycle;Signal;HPM_P1;HPM_P2
2021/07/17 00:00:17;;;;;;;;;;;;;;;25.57;62.63;101164.31;5111687;28;1212;-62
2021/07/17 00:02:50;;;;;;;;;;;;;;;25.58;62.69;101165.16;5096070;28;787;-62
2021/07/17 00:05:18;;;;;;;;;;;;;;;25.56;63.19;101169.78;5091239;28;1295;-63
2021/07/17 00:07:45;;;;;;;;;;;;;;;25.54;63.12;101168.06;5072486;28;1182;-62
2021/07/17 00:10:12;;;;;;;;;;;;;;;25.54;63.61;101168.06;5091061;28;1231;-62
2021/07/17 00:12:40;;;;;;;;;;;;;;;25.56;63.54;101161.78;5091216;28;857;-62
2021/07/17 00:15:07;;;;;;;;;;;;;;;25.56;63.16;101169.78;5090979;28;1229;-62
2021/07/17 00:17:35;;;;;;;;;;;;;;;25.56;63.56;101167.13;5090732;28;2101;-62
2021/07/17 00:20:06;;;;;;;;;;;;;;;25.53;63.80;101163.69;5090481;28;1245;-62
2021/07/17 00:22:33;;;;;;;;;;;;;;;25.54;63.60;101162.72;5072877;28;861;-63
2021/07/17 00:25:00;;;;;;;;;;;;;;;25.53;63.93;101160.22;5089740;28;1262;-63
2021/07/17 00:27:26;;;;;;;;;;;;;;;25.53;63.85;101161.03;5091103;28;1163;-64
2021/07/17 00:29:58;;;;;;;;;;;;;;;25.52;63.85;101158.50;5091130;28;1323;-63
2021/07/17 00:32:24;;;;;;;;;;;;;;;25.52;63.82;101159.34;5090694;28;1016;-62
2021/07/17 00:34:52;;;;;;;;;;;;;;;25.51;63.59;101152.31;5072733;28;1252;-63
2021/07/17 00:37:22;;;;;;;;;;;;;;;25.52;63.86;101151.34;5090136;28;1906;-63
2021/07/17 00:39:50;;;;;;;;;;;;;;;25.52;64.10;101150.50;5090657;28;1311;-63
2021/07/17 00:42:17;;;;;;;;;;;;;;;25.53;63.72;101154.88;5072642;28;1191;-63
2021/07/17 00:44:48;;;;;;;;;;;;;;;25.52;64.22;101147.81;5090607;28;1346;-63
2021/07/17 00:47:17;;;;;;;;;;;;;;;25.50;64.21;101149.78;5072211;28;1191;-62
2021/07/17 00:49:44;;;;;;;;;;;;;;;25.50;63.67;101150.59;5090332;28;1216;-62
2021/07/17 00:52:11;;;;;;;;;;;;;;;25.50;63.58;101145.25;5090082;28;884;-62
2021/07/17 00:54:39;;;;;;;;;;;;;;;25.50;63.84;101145.25;5090214;28;1213;-61
2021/07/17 00:57:08;;;;;;;;;;;;;;;25.49;63.49;101148.06;5090328;28;1902;-62
2021/07/17 00:59:36;;;;;;;;;;;;;;;25.48;63.02;101141.88;5089916;28;1168;-63
2021/07/17 01:02:06;;;;;;;;;;;;;;;25.46;63.32;101133.13;5072533;28;1726;-63
2021/07/17 01:04:53;;;;;;;;;;;;;;;25.45;63.62;101135.91;5074762;28;1296;-63
2021/07/17 01:07:20;;;;;;;;;;;;;;;25.44;63.11;101135.06;5090276;28;1057;-62
2021/07/17 01:09:47;;;;;;;;;;;;;;;25.39;63.54;101126.56;5089979;28;1236;-63
2021/07/17 01:12:16;;;;;;;;;;;;;;;25.42;63.63;101131.66;5071856;28;1191;-63
2021/07/17 01:14:43;;;;;;;;;;;;;;;25.43;63.84;101129.84;5071294;28;1312;-63
2021/07/17 01:17:10;;;;;;;;;;;;;;;25.40;64.03;101127.44;5090106;28;1914;-63
2021/07/17 01:19:40;;;;;;;;;;;;;;;25.41;63.61;101129.13;5054994;28;1240;-63
2021/07/17 01:22:10;;;;;;;;;;;;;;;25.43;63.82;101124.53;5071415;28;1380;-63
2021/07/17 01:24:38;;;;;;;;;;;;;;;25.40;63.84;101122.94;5083642;28;1618;-63
2021/07/17 01:27:05;;;;;;;;;;;;;;;25.39;63.82;101128.38;5086630;28;1732;-62
2021/07/17 01:29:33;;;;;;;;;;;;;;;25.37;63.14;101125.00;5110101;28;1290;-63
2021/07/17 01:32:11;;;;;;;;;;;;;;;25.38;63.15;101132.03;5091518;28;1442;-63
2021/07/17 01:34:39;;;;;;;;;;;;;;;25.37;63.07;101123.19;5090088;28;1237;-63
2021/07/17 01:37:08;;;;;;;;;;;;;;;25.37;62.84;101120.53;5089333;28;1906;-62
2021/07/17 01:39:37;;;;;;;;;;;;;;;25.38;62.40;101114.19;5070847;28;1246;-63
2021/07/17 01:42:13;;;;;;;;;;;;;;;25.36;62.77;101110.81;5075709;28;1234;-63
2021/07/17 01:44:58;;;;;;;;;;;;;;;25.33;61.98;101116.38;5093976;28;1688;-63
2021/07/17 01:47:41;;;;;;;;;;;;;;;25.32;61.74;101114.69;5109347;28;876;-63
2021/07/17 01:50:11;;;;;;;;;;;;;;;25.30;61.58;101113.13;5109813;28;1203;-62
2021/07/17 01:52:38;;;;;;;;;;;;;;;25.29;61.32;101108.78;5109573;28;814;-62
2021/07/17 01:55:07;;;;;;;;;;;;;;;25.28;60.87;101110.59;5109838;28;1235;-62
2021/07/17 01:57:40;;;;;;;;;;;;;;;25.27;60.93;101105.34;5090788;28;1914;-62
2021/07/17 02:00:08;;;;;;;;;;;;;;;25.28;60.87;101112.41;5109414;28;1298;-63
2021/07/17 02:02:35;;;;;;;;;;;;;;;25.25;60.57;101110.81;5073512;28;1097;-62
2021/07/17 02:05:06;;;;;;;;;;;;;;;25.25;60.67;101110.81;5088712;28;1313;-63
2021/07/17 02:07:34;;;;;;;;;;;;;;;25.24;60.80;101106.44;5070229;28;1292;-62
2021/07/17 02:10:05;;;;;;;;;;;;;;;25.22;60.58;101108.41;5054155;28;1240;-63
2021/07/17 02:12:33;;;;;;;;;;;;;;;25.22;60.97;101102.22;5070537;28;1065;-63
2021/07/17 02:15:02;;;;;;;;;;;;;;;25.18;61.18;101101.59;5070104;28;1339;-63
2021/07/17 02:17:30;;;;;;;;;;;;;;;25.21;60.86;101100.50;5088589;28;1975;-63
2021/07/17 02:19:58;;;;;;;;;;;;;;;25.19;60.87;101097.97;5088493;28;1248;-63
2021/07/17 02:22:25;;;;;;;;;;;;;;;25.18;60.80;101100.75;5089048;28;818;-63
2021/07/17 02:24:54;;;;;;;;;;;;;;;25.18;61.24;101096.28;5088779;28;1242;-63
2021/07/17 02:27:22;;;;;;;;;;;;;;;25.16;61.38;101092.88;5087321;28;1032;-63
2021/07/17 02:29:53;;;;;;;;;;;;;;;25.15;61.22;101091.19;5038445;28;1641;-63
2021/07/17 02:32:20;;;;;;;;;;;;;;;25.17;61.39;101089.22;5088623;28;978;-63
2021/07/17 02:34:47;;;;;;;;;;;;;;;25.14;61.22;101080.66;5069826;28;1721;-63
2021/07/17 02:37:15;;;;;;;;;;;;;;;25.13;61.16;101085.13;5088531;28;1910;-63
2021/07/17 02:39:42;;;;;;;;;;;;;;;25.13;61.14;101079.81;5088172;28;1318;-63
2021/07/17 02:42:09;;;;;;;;;;;;;;;25.13;61.24;101076.28;5088633;28;1174;-63
2021/07/17 02:44:37;;;;;;;;;;;;;;;25.11;61.55;101073.72;5087804;28;1668;-63
2021/07/17 02:47:03;;;;;;;;;;;;;;;25.07;61.24;101063.44;5087902;28;1041;-63
2021/07/17 02:49:31;;;;;;;;;;;;;;;25.11;61.03;101063.06;5088328;28;1240;-63
2021/07/17 02:51:57;;;;;;;;;;;;;;;25.09;61.22;101059.69;5088290;28;882;-63
2021/07/17 02:54:45;;;;;;;;;;;;;;;25.08;61.25;101057.97;5072798;28;1308;-62
2021/07/17 02:57:11;;;;;;;;;;;;;;;25.09;61.09;101054.34;5088116;28;1910;-63
2021/07/17 02:59:38;;;;;;;;;;;;;;;25.08;60.80;101057.97;5088349;28;1265;-63
2021/07/17 03:02:05;;;;;;;;;;;;;;;25.07;60.89;101056.28;5088327;28;1123;-63
2021/07/17 03:04:32;;;;;;;;;;;;;;;25.08;60.64;101065.16;5087950;28;1315;-63
2021/07/17 03:06:59;;;;;;;;;;;;;;;25.06;60.06;101048.41;5088190;28;1249;-63
2021/07/17 03:09:26;;;;;;;;;;;;;;;25.04;60.61;101059.19;5087927;28;1347;-63
2021/07/17 03:11:52;;;;;;;;;;;;;;;25.04;60.44;101050.34;5088123;28;1136;-63
2021/07/17 03:14:20;;;;;;;;;;;;;;;25.04;60.08;101061.88;5069461;28;1311;-63
2021/07/17 03:16:47;;;;;;;;;;;;;;;25.04;60.42;101061.88;5069856;28;1979;-63
2021/07/17 03:19:14;;;;;;;;;;;;;;;25.00;60.67;101065.72;5087869;28;1291;-63
2021/07/17 03:21:41;;;;;;;;;;;;;;;25.00;60.30;101065.72;5088221;28;1142;-63
2021/07/17 03:24:08;;;;;;;;;;;;;;;25.00;60.47;101065.72;5087440;28;1219;-63
2021/07/17 03:26:34;;;;;;;;;;;;;;;24.99;60.65;101056.03;5087405;28;981;-63
2021/07/17 03:29:01;;;;;;;;;;;;;;;25.00;59.86;101055.06;5087568;28;1227;-63
2021/07/17 03:31:28;;;;;;;;;;;;;;;25.04;60.19;101051.19;5088016;28;1134;-63
2021/07/17 03:33:56;;;;;;;;;;;;;;;25.02;60.20;101053.13;5069092;28;1291;-62
2021/07/17 03:36:23;;;;;;;;;;;;;;;25.00;60.03;101057.72;5069526;28;1528;-63
2021/07/17 03:38:50;;;;;;;;;;;;;;;25.02;60.12;101052.31;5087456;28;1984;-63
2021/07/17 03:41:17;;;;;;;;;;;;;;;25.01;59.84;101062.09;5087784;28;937;-63
2021/07/17 03:43:44;;;;;;;;;;;;;;;25.00;59.81;101065.72;5087715;28;1404;-63
2021/07/17 03:46:13;;;;;;;;;;;;;;;25.00;60.26;101065.72;5069040;28;2060;-63
2021/07/17 03:48:41;;;;;;;;;;;;;;;25.00;59.80;101065.72;5087772;28;1288;-63
2021/07/17 03:51:08;;;;;;;;;;;;;;;24.98;59.81;101063.19;5087766;28;1053;-63
2021/07/17 03:53:35;;;;;;;;;;;;;;;24.97;59.78;101064.16;5087526;28;1314;-63
2021/07/17 03:56:02;;;;;;;;;;;;;;;24.97;60.25;101060.63;5087622;28;1031;-63
2021/07/17 03:58:32;;;;;;;;;;;;;;;24.95;59.88;101060.78;5069976;28;1979;-63
2021/07/17 04:01:00;;;;;;;;;;;;;;;24.97;60.28;101060.63;5072522;28;983;-63
2021/07/17 04:03:35;;;;;;;;;;;;;;;24.97;60.06;101060.63;5072842;28;1589;-63
2021/07/17 04:06:07;;;;;;;;;;;;;;;24.96;59.76;101056.25;5091269;28;1056;-63
2021/07/17 04:08:43;;;;;;;;;;;;;;;24.96;59.78;101064.25;5072943;28;1510;-63
2021/07/17 04:11:11;;;;;;;;;;;;;;;24.95;59.99;101062.59;5090996;28;1103;-63
2021/07/17 04:13:39;;;;;;;;;;;;;;;24.93;60.17;101065.34;5072370;28;1481;-62
2021/07/17 04:16:08;;;;;;;;;;;;;;;24.93;59.97;101069.81;5091115;28;1142;-64
2021/07/17 04:18:35;;;;;;;;;;;;;;;24.92;59.83;101062.81;5091099;28;1910;-63
2021/07/17 04:21:04;;;;;;;;;;;;;;;24.93;59.46;101062.69;5091136;28;1108;-64
2021/07/17 04:23:33;;;;;;;;;;;;;;;24.91;59.83;101061.13;5072595;28;1597;-63
2021/07/17 04:26:01;;;;;;;;;;;;;;;24.88;59.63;101058.69;5091290;28;1049;-64
2021/07/17 04:28:29;;;;;;;;;;;;;;;24.88;60.20;101061.34;5072117;28;1484;-63
2021/07/17 04:30:57;;;;;;;;;;;;;;;24.86;59.88;101052.66;5090881;28;918;-63
2021/07/17 04:33:25;;;;;;;;;;;;;;;24.87;59.86;101059.66;5071632;28;1311;-63
2021/07/17 04:36:02;;;;;;;;;;;;;;;24.86;60.28;101057.97;5073475;28;927;-63
2021/07/17 04:38:30;;;;;;;;;;;;;;;24.86;60.05;101058.81;5090422;28;1973;-63
2021/07/17 04:40:57;;;;;;;;;;;;;;;24.84;60.34;101065.22;5090749;28;1057;-63
2021/07/17 04:43:31;;;;;;;;;;;;;;;24.80;60.28;101058.41;5056296;28;1471;-64
2021/07/17 04:46:01;;;;;;;;;;;;;;;24.80;60.16;101064.59;5090601;28;929;-63
2021/07/17 04:48:29;;;;;;;;;;;;;;;24.79;60.31;101056.72;5072070;28;1339;-63
2021/07/17 04:50:57;;;;;;;;;;;;;;;24.79;60.20;101062.03;5090675;28;952;-63
2021/07/17 04:53:24;;;;;;;;;;;;;;;24.81;59.91;101057.47;5090568;28;1322;-63
2021/07/17 04:55:51;;;;;;;;;;;;;;;24.82;59.83;101068.00;5090650;28;993;-63
2021/07/17 04:58:18;;;;;;;;;;;;;;;24.83;59.66;101059.06;5090250;28;1913;-64
2021/07/17 05:00:46;;;;;;;;;;;;;;;24.82;59.84;101054.69;5090245;28;1063;-63
2021/07/17 05:03:14;;;;;;;;;;;;;;;24.82;59.97;101052.03;5072367;28;1317;-63
2021/07/17 05:05:42;;;;;;;;;;;;;;;24.83;59.98;101059.06;5071564;28;1151;-63
2021/07/17 05:08:10;;;;;;;;;;;;;;;24.80;60.09;101059.28;5090045;28;1297;-63
2021/07/17 05:10:37;;;;;;;;;;;;;;;24.81;59.73;101057.47;5071172;28;1006;-63
2021/07/17 05:13:14;;;;;;;;;;;;;;;24.81;59.88;101058.31;5089519;28;1343;-62
2021/07/17 05:15:43;;;;;;;;;;;;;;;24.74;60.04;101050.91;5071499;28;1373;-64
2021/07/17 05:18:14;;;;;;;;;;;;;;;24.83;59.49;101059.06;5090023;28;1973;-63
2021/07/17 05:20:44;;;;;;;;;;;;;;;24.83;59.80;101071.53;5082288;28;1420;-61
2021/07/17 05:23:14;;;;;;;;;;;;;;;24.84;59.85;101075.88;5091783;28;1361;-62
2021/07/17 05:25:42;;;;;;;;;;;;;;;24.81;60.15;101081.44;5089596;28;1024;-62
2021/07/17 05:28:09;;;;;;;;;;;;;;;24.81;60.00;101081.44;5089399;28;1223;-62
2021/07/17 05:30:36;;;;;;;;;;;;;;;24.83;59.93;101074.19;5070348;28;1320;-63
2021/07/17 05:33:04;;;;;;;;;;;;;;;24.86;59.97;101069.47;5089572;28;1329;-63
2021/07/17 05:35:35;;;;;;;;;;;;;;;24.87;59.72;101070.31;5070963;28;1274;-62
2021/07/17 05:38:02;;;;;;;;;;;;;;;24.87;59.90;101075.63;5089371;28;1918;-63
2021/07/17 05:40:33;;;;;;;;;;;;;;;24.87;59.39;101075.63;5089490;28;1055;-62
2021/07/17 05:43:13;;;;;;;;;;;;;;;24.88;60.01;101067.53;5089596;28;1340;-62
2021/07/17 05:46:00;;;;;;;;;;;;;;;24.88;59.72;101067.53;5089368;28;1060;-63
2021/07/17 05:48:27;;;;;;;;;;;;;;;24.90;59.80;101064.75;5070901;28;1662;-62
2021/07/17 05:50:55;;;;;;;;;;;;;;;24.90;59.47;101065.59;5089269;28;921;-63
2021/07/17 05:53:22;;;;;;;;;;;;;;;24.89;59.57;101071.91;5089046;28;1240;-63
2021/07/17 05:55:49;;;;;;;;;;;;;;;24.90;59.50;101075.41;5089131;28;1126;-61
2021/07/17 05:58:18;;;;;;;;;;;;;;;24.86;59.42;101073.97;5088661;28;1906;-62
2021/07/17 06:00:45;;;;;;;;;;;;;;;24.88;59.49;101078.19;5089216;28;1209;-63
2021/07/17 06:03:15;;;;;;;;;;;;;;;24.88;60.06;101072.00;5070826;28;1445;-62
2021/07/17 06:05:43;;;;;;;;;;;;;;;24.90;59.92;101068.25;5089255;28;1115;-63
2021/07/17 06:08:11;;;;;;;;;;;;;;;24.91;60.24;101063.78;5070509;28;1244;-63
2021/07/17 06:10:38;;;;;;;;;;;;;;;24.91;60.34;101061.13;5088812;28;992;-63
2021/07/17 06:13:06;;;;;;;;;;;;;;;24.92;60.18;101061.00;5070561;28;1801;-62
2021/07/17 06:15:33;;;;;;;;;;;;;;;24.92;59.50;101062.81;5088669;28;1083;-65
2021/07/17 06:18:01;;;;;;;;;;;;;;;24.92;60.37;101066.34;5099352;28;1974;-65
2021/07/17 06:20:28;;;;;;;;;;;;;;;24.97;60.14;101076.63;5107978;28;1196;-65
2021/07/17 06:22:55;;;;;;;;;;;;;;;24.97;60.42;101084.63;5087943;28;1283;-66
2021/07/17 06:25:22;;;;;;;;;;;;;;;25.00;60.16;101089.72;5108019;28;1299;-67
2021/07/17 06:27:48;;;;;;;;;;;;;;;25.00;60.00;101089.72;5101473;28;1292;-67
2021/07/17 06:30:16;;;;;;;;;;;;;;;24.99;60.33;101086.19;5102853;28;1296;-66
2021/07/17 06:32:43;;;;;;;;;;;;;;;24.99;59.83;101080.88;5086783;28;1408;-67
2021/07/17 06:35:10;;;;;;;;;;;;;;;25.00;60.17;101071.06;5107541;28;1232;-67
2021/07/17 06:37:41;;;;;;;;;;;;;;;24.96;60.25;101080.25;5104206;28;1913;-66
2021/07/17 06:40:11;;;;;;;;;;;;;;;25.02;60.05;101081.63;5107608;28;1366;-66
2021/07/17 06:42:56;;;;;;;;;;;;;;;25.06;60.09;101089.22;5104602;28;1138;-66
2021/07/17 06:45:22;;;;;;;;;;;;;;;25.07;59.98;101088.28;5086821;28;1400;-65
2021/07/17 06:47:49;;;;;;;;;;;;;;;25.09;60.15;101086.31;5107270;28;1252;-67
2021/07/17 06:50:20;;;;;;;;;;;;;;;25.10;59.83;101082.72;5105754;28;1474;-66
2021/07/17 06:52:47;;;;;;;;;;;;;;;25.08;59.76;101084.63;5107457;28;1228;-66
2021/07/17 06:55:14;;;;;;;;;;;;;;;25.10;59.89;101089.84;5107139;28;1220;-66
2021/07/17 06:57:41;;;;;;;;;;;;;;;25.15;60.03;101091.19;5107413;28;1913;-66
2021/07/17 07:00:09;;;;;;;;;;;;;;;25.16;59.80;101105.38;5088691;28;1323;-66
2021/07/17 07:02:36;;;;;;;;;;;;;;;25.17;59.77;101107.88;5107033;28;1407;-65
2021/07/17 07:05:05;;;;;;;;;;;;;;;25.17;59.61;101115.88;5107324;28;1320;-65
2021/07/17 07:07:31;;;;;;;;;;;;;;;25.17;59.85;101123.88;5107409;28;1259;-65
2021/07/17 07:09:58;;;;;;;;;;;;;;;25.18;59.56;101127.41;5104602;28;1295;-66
2021/07/17 07:12:25;;;;;;;;;;;;;;;25.18;59.58;101122.94;5107391;28;1284;-65
2021/07/17 07:14:51;;;;;;;;;;;;;;;25.20;59.61;101126.31;5088426;28;1276;-65
2021/07/17 07:17:18;;;;;;;;;;;;;;;25.21;59.02;101113.84;5104613;28;1312;-65
2021/07/17 07:19:45;;;;;;;;;;;;;;;25.23;59.61;101110.06;5088188;28;1989;-64
2021/07/17 07:22:11;;;;;;;;;;;;;;;25.24;59.37;101106.44;5106572;28;1204;-64
2021/07/17 07:24:38;;;;;;;;;;;;;;;25.24;59.40;101106.44;5098792;28;1229;-64
2021/07/17 07:27:05;;;;;;;;;;;;;;;25.25;59.37;101112.63;5104572;28;1268;-64
2021/07/17 07:29:32;;;;;;;;;;;;;;;25.24;59.46;101109.13;5087342;28;1302;-64
2021/07/17 07:31:59;;;;;;;;;;;;;;;25.26;59.18;101117.00;5084355;28;1284;-65
2021/07/17 07:34:27;;;;;;;;;;;;;;;25.28;59.54;101118.59;5108187;28;1291;-64
2021/07/17 07:36:53;;;;;;;;;;;;;;;25.30;59.53;101121.13;5110276;28;1288;-65
2021/07/17 07:39:21;;;;;;;;;;;;;;;25.29;59.33;101120.25;5110106;28;1905;-64
2021/07/17 07:41:47;;;;;;;;;;;;;;;25.30;59.64;101127.31;5109846;28;1220;-64
2021/07/17 07:44:14;;;;;;;;;;;;;;;25.31;59.19;101123.69;5103135;28;1441;-64
2021/07/17 07:46:41;;;;;;;;;;;;;;;25.31;59.18;101118.34;5048713;28;1354;-63
2021/07/17 07:49:08;;;;;;;;;;;;;;;25.33;59.41;101124.38;5070299;28;1361;-65
2021/07/17 07:51:35;;;;;;;;;;;;;;;25.34;59.70;101126.09;5089550;28;1209;-66
2021/07/17 07:54:02;;;;;;;;;;;;;;;25.37;59.44;101122.34;5070835;28;1647;-66
2021/07/17 07:56:28;;;;;;;;;;;;;;;25.37;59.69;101123.19;5089249;28;1236;-64
2021/07/17 07:58:55;;;;;;;;;;;;;;;25.37;59.65;101120.53;5088679;28;1913;-64
2021/07/17 08:01:22;;;;;;;;;;;;;;;25.40;59.80;101124.75;5067638;28;1308;-65
2021/07/17 08:03:49;;;;;;;;;;;;;;;25.41;59.48;101113.13;5088780;28;1306;-66
2021/07/17 08:06:16;;;;;;;;;;;;;;;25.42;59.54;101112.16;5088880;28;1268;-65
2021/07/17 08:08:43;;;;;;;;;;;;;;;25.43;59.51;101116.53;5088868;28;1369;-65
2021/07/17 08:11:09;;;;;;;;;;;;;;;25.45;59.54;101125.25;5088951;28;1237;-65
2021/07/17 08:13:36;;;;;;;;;;;;;;;25.47;59.82;101117.97;5088809;28;1331;-65
2021/07/17 08:16:03;;;;;;;;;;;;;;;25.47;59.99;101116.13;5086581;28;1260;-64
2021/07/17 08:18:31;;;;;;;;;;;;;;;25.48;59.28;101117.88;5089080;28;1977;-65
2021/07/17 08:20:58;;;;;;;;;;;;;;;25.49;59.94;101105.41;5088986;28;1063;-65
2021/07/17 08:23:25;;;;;;;;;;;;;;;25.50;59.41;101101.78;5064440;28;1499;-64
2021/07/17 08:25:52;;;;;;;;;;;;;;;25.51;59.94;101093.63;5083515;28;1291;-62
2021/07/17 08:28:19;;;;;;;;;;;;;;;25.50;60.27;101081.25;5089610;28;1306;-62
2021/07/17 08:30:45;;;;;;;;;;;;;;;25.49;60.42;101082.25;5090016;28;1245;-61
2021/07/17 08:33:12;;;;;;;;;;;;;;;25.49;59.97;101092.91;5090173;28;1284;-60
2021/07/17 08:35:39;;;;;;;;;;;;;;;25.48;59.89;101096.53;5053820;28;1438;-63
2021/07/17 08:38:07;;;;;;;;;;;;;;;25.50;59.40;101101.78;5089674;28;1918;-63
2021/07/17 08:40:34;;;;;;;;;;;;;;;25.51;58.70;101098.97;5089516;28;1237;-65
2021/07/17 08:43:01;;;;;;;;;;;;;;;25.53;59.11;101096.19;5089442;28;1259;-65
2021/07/17 08:45:27;;;;;;;;;;;;;;;25.51;58.98;101098.97;5096369;28;1268;-62
2021/07/17 08:47:56;;;;;;;;;;;;;;;25.53;58.82;101104.19;5092302;28;751;-64
2021/07/17 08:50:24;;;;;;;;;;;;;;;25.52;58.89;101098.00;5111010;28;1377;-65
2021/07/17 08:52:52;;;;;;;;;;;;;;;25.54;58.90;101095.19;5092502;28;818;-61
2021/07/17 08:55:19;;;;;;;;;;;;;;;25.56;58.65;101084.41;5110807;28;1230;-63
2021/07/17 08:57:45;;;;;;;;;;;;;;;25.54;58.51;101080.03;5110870;28;1097;-64
2021/07/17 09:00:20;;;;;;;;;;;;;;;25.57;58.57;101081.63;5110815;28;1902;-64
2021/07/17 09:02:55;;;;;;;;;;;;;;;25.60;58.74;101072.50;5091873;28;1077;-66
2021/07/17 09:05:26;;;;;;;;;;;;;;;25.62;59.30;101073.25;5075778;28;1171;-64
2021/07/17 09:07:58;;;;;;;;;;;;;;;25.62;58.84;101065.25;5091870;28;1536;-64
2021/07/17 09:10:38;;;;;;;;;;;;;;;25.65;59.90;101063.19;5077105;28;1481;-63
2021/07/17 09:13:21;;;;;;;;;;;;;;;25.65;58.77;101059.66;5110281;28;1264;-63
2021/07/17 09:15:58;;;;;;;;;;;;;;;25.67;58.39;101063.06;5091612;28;1382;-63
2021/07/17 09:18:35;;;;;;;;;;;;;;;25.67;59.65;101063.91;5105887;28;1910;-61
2021/07/17 09:21:05;;;;;;;;;;;;;;;25.67;59.26;101061.25;5086064;28;1145;-61
2021/07/17 09:23:35;;;;;;;;;;;;;;;25.68;59.38;101057.59;5064008;28;1628;-63
2021/07/17 09:26:17;;;;;;;;;;;;;;;25.70;59.78;101060.13;5068152;28;1459;-63
2021/07/17 09:28:54;;;;;;;;;;;;;;;25.72;59.77;101047.50;5088306;28;1310;-66
2021/07/17 09:31:22;;;;;;;;;;;;;;;25.72;60.36;101055.50;5089269;28;1141;-64
2021/07/17 09:33:52;;;;;;;;;;;;;;;25.72;59.79;101058.19;5087869;28;1244;-65
2021/07/17 09:36:20;;;;;;;;;;;;;;;25.74;60.51;101056.25;5070074;28;1231;-64
2021/07/17 09:38:51;;;;;;;;;;;;;;;25.77;59.21;101061.34;5070247;28;1939;-65
2021/07/17 09:41:21;;;;;;;;;;;;;;;25.78;59.53;101052.34;5070832;28;1233;-63
2021/07/17 09:43:59;;;;;;;;;;;;;;;25.77;58.50;101046.19;5091433;28;1669;-62
2021/07/17 09:46:29;;;;;;;;;;;;;;;25.78;59.37;101049.66;5090246;28;1625;-62
2021/07/17 09:49:03;;;;;;;;;;;;;;;25.76;58.43;101057.81;5085495;28;1272;-62
2021/07/17 09:51:34;;;;;;;;;;;;;;;25.79;59.57;101046.03;5109394;28;1130;-61
2021/07/17 09:54:02;;;;;;;;;;;;;;;25.79;59.03;101044.22;5109318;28;1301;-64
2021/07/17 09:56:31;;;;;;;;;;;;;;;25.81;59.71;101028.06;5090575;28;1139;-63
2021/07/17 09:59:05;;;;;;;;;;;;;;;25.82;60.06;101043.13;5066306;28;2010;-64
2021/07/17 10:01:41;;;;;;;;;;;;;;;25.83;59.19;101040.34;5092415;28;1085;-63
2021/07/17 10:04:13;;;;;;;;;;;;;;;25.85;59.34;101042.88;5090073;28;1217;-63
2021/07/17 10:06:58;;;;;;;;;;;;;;;25.85;59.21;101037.53;5096094;28;993;-62
2021/07/17 10:09:31;;;;;;;;;;;;;;;25.86;59.88;101037.41;5070902;28;1285;-63
2021/07/17 10:12:00;;;;;;;;;;;;;;;25.89;58.97;101042.50;5070478;28;1810;-64
2021/07/17 10:14:33;;;;;;;;;;;;;;;25.91;59.09;101037.03;5069219;28;1347;-63
2021/07/17 10:17:05;;;;;;;;;;;;;;;25.92;59.08;101033.41;5089013;28;1153;-62
2021/07/17 10:19:32;;;;;;;;;;;;;;;25.93;59.23;101032.44;5100881;28;1918;-63
2021/07/17 10:22:02;;;;;;;;;;;;;;;25.94;59.47;101031.44;5109691;28;1191;-63
2021/07/17 10:24:31;;;;;;;;;;;;;;;25.94;58.70;101031.44;5109217;28;1286;-62
2021/07/17 10:27:08;;;;;;;;;;;;;;;25.95;59.07;101028.66;5089919;28;1414;-61
2021/07/17 10:29:38;;;;;;;;;;;;;;;25.94;58.86;101028.75;5108941;28;1276;-62
2021/07/17 10:32:08;;;;;;;;;;;;;;;25.95;58.77;101033.13;5090264;28;1470;-62
2021/07/17 10:34:38;;;;;;;;;;;;;;;25.95;58.57;101033.13;5108824;28;1292;-63
2021/07/17 10:37:17;;;;;;;;;;;;;;;25.96;58.84;101029.50;5109229;28;1167;-63
2021/07/17 10:40:13;;;;;;;;;;;;;;;25.98;58.56;101030.22;5090034;28;2005;-62
2021/07/17 10:42:50;;;;;;;;;;;;;;;26.01;58.72;101029.97;5106279;28;1599;-63
2021/07/17 10:45:37;;;;;;;;;;;;;;;26.03;58.84;101030.69;5089817;28;1415;-63
2021/07/17 10:48:36;;;;;;;;;;;;;;;26.03;58.40;101036.00;5090745;28;1309;-63
2021/07/17 10:51:23;;;;;;;;;;;;;;;26.02;57.99;101037.00;5091575;28;1190;-63
2021/07/17 10:53:55;;;;;;;;;;;;;;;26.01;58.00;101033.47;5109057;28;1390;-63
2021/07/17 10:56:28;;;;;;;;;;;;;;;26.01;57.79;101032.63;5108937;28;1001;-63
2021/07/17 10:59:07;;;;;;;;;;;;;;;26.02;57.24;101035.16;5108412;28;1906;-63
2021/07/17 11:01:53;;;;;;;;;;;;;;;26.03;57.71;101031.53;5108625;28;1105;-63
2021/07/17 11:04:44;;;;;;;;;;;;;;;26.03;57.30;101031.53;5108030;28;1549;-62
2021/07/17 11:07:17;;;;;;;;;;;;;;;26.05;56.89;101040.25;5081080;28;1228;-63
2021/07/17 11:09:52;;;;;;;;;;;;;;;26.06;56.86;101025.06;5089423;28;1191;-62
2021/07/17 11:12:28;;;;;;;;;;;;;;;26.05;56.71;101026.06;5089525;28;1201;-63
2021/07/17 11:15:17;;;;;;;;;;;;;;;26.06;56.57;101030.41;5089743;28;1272;-62
2021/07/17 11:17:51;;;;;;;;;;;;;;;26.06;56.65;101033.94;5057113;28;1092;-63
2021/07/17 11:20:33;;;;;;;;;;;;;;;26.11;56.30;101032.72;5087560;28;1982;-63
2021/07/17 11:23:03;;;;;;;;;;;;;;;26.10;55.84;101034.53;5087488;28;1640;-63
2021/07/17 11:25:30;;;;;;;;;;;;;;;26.08;55.95;101031.16;5089143;28;1042;-62
2021/07/17 11:28:00;;;;;;;;;;;;;;;26.09;55.67;101024.81;5108874;28;1258;-63
2021/07/17 11:30:35;;;;;;;;;;;;;;;26.09;55.48;101027.50;5108544;28;1128;-63
2021/07/17 11:33:04;;;;;;;;;;;;;;;26.10;55.44;101018.53;5073555;28;1387;-62
2021/07/17 11:35:33;;;;;;;;;;;;;;;26.10;54.93;101021.19;5089486;28;1042;-63
2021/07/17 11:38:01;;;;;;;;;;;;;;;26.14;54.93;101017.28;5108327;28;1313;-62
2021/07/17 11:40:28;;;;;;;;;;;;;;;26.14;54.86;101019.13;5108093;28;1935;-62
2021/07/17 11:43:01;;;;;;;;;;;;;;;26.14;54.54;101019.13;5107892;28;920;-63
2021/07/17 11:45:28;;;;;;;;;;;;;;;26.14;53.92;101017.28;5107877;28;1084;-62
2021/07/17 11:48:04;;;;;;;;;;;;;;;26.15;53.76;101005.66;5107775;28;1095;-63
2021/07/17 11:50:31;;;;;;;;;;;;;;;26.17;54.29;101017.06;5108398;28;1098;-62
2021/07/17 11:52:58;;;;;;;;;;;;;;;26.18;53.76;101008.06;5108120;28;872;-62
2021/07/17 11:55:25;;;;;;;;;;;;;;;26.16;53.48;101018.03;5107810;28;1038;-62
2021/07/17 11:57:51;;;;;;;;;;;;;;;26.18;53.61;101010.72;5108053;28;838;-61
2021/07/17 12:00:20;;;;;;;;;;;;;;;26.19;52.89;101004.44;5107810;28;2009;-63
2021/07/17 12:02:53;;;;;;;;;;;;;;;26.20;53.31;101002.59;5108073;28;782;-62
2021/07/17 12:05:20;;;;;;;;;;;;;;;26.19;53.51;100995.56;5108186;28;1220;-63
2021/07/17 12:07:47;;;;;;;;;;;;;;;26.18;53.44;100999.19;5108012;28;1068;-62
2021/07/17 12:10:16;;;;;;;;;;;;;;;26.19;53.19;100999.09;5107796;28;1212;-62
2021/07/17 12:12:52;;;;;;;;;;;;;;;26.20;52.78;100994.59;5088724;28;901;-62
2021/07/17 12:15:24;;;;;;;;;;;;;;;26.26;52.94;100989.59;5104526;28;1608;-64
2021/07/17 12:18:00;;;;;;;;;;;;;;;26.23;53.03;100992.53;5087236;28;834;-62
2021/07/17 12:20:32;;;;;;;;;;;;;;;26.08;51.37;100985.78;5106793;28;1905;-63
2021/07/17 12:23:01;;;;;;;;;;;;;;;25.93;50.83;100987.06;5110503;28;1326;-63
2021/07/17 12:25:29;;;;;;;;;;;;;;;25.85;49.97;100979.69;5099356;28;1442;-61
2021/07/17 12:28:02;;;;;;;;;;;;;;;25.75;49.59;100969.88;5101863;28;1474;-62
2021/07/17 12:30:30;;;;;;;;;;;;;;;25.68;49.59;100968.72;5089577;28;1137;-62
2021/07/17 12:33:10;;;;;;;;;;;;;;;25.61;49.23;100975.53;5070902;28;1210;-60
2021/07/17 12:35:37;;;;;;;;;;;;;;;25.56;48.63;100975.91;5089291;28;985;-62
2021/07/17 12:38:27;;;;;;;;;;;;;;;25.54;48.96;100978.69;5071689;28;1668;-61
2021/07/17 12:40:59;;;;;;;;;;;;;;;25.52;49.20;100966.47;5090282;28;1909;-62
2021/07/17 12:43:25;;;;;;;;;;;;;;;25.53;48.74;100974.31;5090744;28;1296;-61
2021/07/17 12:46:02;;;;;;;;;;;;;;;25.51;48.23;100978.94;5090172;28;1105;-63
2021/07/17 12:48:29;;;;;;;;;;;;;;;25.47;48.32;100968.63;5090882;28;1248;-65
2021/07/17 12:51:06;;;;;;;;;;;;;;;25.48;48.29;100976.53;5090595;28;1074;-64
2021/07/17 12:53:33;;;;;;;;;;;;;;;25.40;48.36;100968.28;5090759;28;1223;-64
2021/07/17 12:56:00;;;;;;;;;;;;;;;25.38;48.72;100964.88;5090695;28;1047;-63
2021/07/17 12:58:27;;;;;;;;;;;;;;;25.44;49.23;100974.22;5055312;28;1368;-64
2021/07/17 13:00:54;;;;;;;;;;;;;;;25.47;49.04;100968.63;5090562;28;1899;-64